Time;durP1;ratioP1;P1;durP2;ratioP2;P2;SDS_P1;SDS_P2;PMS_P1;PMS_P2;Temp;Humidity;BMP_temperature;BMP_pressure;BME280_temperature;BME280_humidity;BME280_pressure;Samples;Min_cycle;Max_cycle;Signal;HPM_P1;HPM_P2
2022/09/17 00:01:51;;;;;;;0.90;0.45;;;19.20;81.20;;;;;;5073522;28;20103;-78
2022/09/17 00:04:17;;;;;;;1.38;0.38;;;19.20;81.20;;;;;;5073903;28;20024;-78
2022/09/17 00:06:42;;;;;;;1.17;0.40;;;19.20;81.20;;;;;;5089628;28;20077;-76
2022/09/17 00:09:08;;;;;;;1.08;0.50;;;19.20;81.10;;;;;;5085426;28;20052;-77
2022/09/17 00:11:36;;;;;;;0.70;0.40;;;19.20;81.20;;;;;;5078166;28;20086;-77
2022/09/17 00:14:04;;;;;;;1.35;0.45;;;19.20;81.20;;;;;;5081113;28;20082;-76
2022/09/17 00:16:39;;;;;;;2.03;0.80;;;19.20;81.10;;;;;;5091935;28;20020;-78
2022/09/17 00:19:08;;;;;;;0.85;0.30;;;19.20;81.20;;;;;;5074974;28;20028;-76
2022/09/17 00:21:34;;;;;;;1.70;0.40;;;19.20;81.20;;;;;;5082847;28;20020;-77
2022/09/17 00:24:03;;;;;;;2.40;0.40;;;19.10;81.20;;;;;;5087509;28;20169;-77
2022/09/17 00:26:29;;;;;;;1.10;0.45;;;19.20;81.30;;;;;;5084663;28;20024;-76
2022/09/17 00:28:57;;;;;;;1.52;0.57;;;19.10;81.30;;;;;;5092039;28;20020;-75
2022/09/17 00:31:23;;;;;;;0.38;0.22;;;19.10;81.40;;;;;;5085564;28;20028;-76
2022/09/17 00:33:49;;;;;;;1.80;0.50;;;19.10;81.30;;;;;;5085915;28;20029;-75
2022/09/17 00:36:14;;;;;;;1.65;0.47;;;19.10;81.40;;;;;;5072046;28;20112;-78
2022/09/17 00:38:40;;;;;;;0.98;0.35;;;19.10;81.40;;;;;;5091422;28;20016;-77
2022/09/17 00:41:07;;;;;;;0.95;0.40;;;19.10;81.40;;;;;;5092888;28;20016;-76
2022/09/17 00:43:37;;;;;;;1.05;0.50;;;19.10;81.50;;;;;;5090274;28;20028;-76
2022/09/17 00:46:08;;;;;;;1.43;0.57;;;19.00;81.40;;;;;;5077086;28;20573;-79
2022/09/17 00:48:34;;;;;;;1.17;0.40;;;19.10;81.30;;;;;;5078500;28;20455;-76
2022/09/17 00:51:01;;;;;;;1.08;0.30;;;19.10;81.30;;;;;;5079693;28;20074;-76
2022/09/17 00:53:27;;;;;;;0.90;0.50;;;19.10;81.30;;;;;;5080156;28;20070;-77
2022/09/17 00:56:08;;;;;;;1.95;0.40;;;19.10;81.30;;;;;;5075995;28;20043;-76
2022/09/17 00:58:35;;;;;;;1.05;0.40;;;19.10;81.20;;;;;;5070722;28;20035;-76
2022/09/17 01:01:01;;;;;;;1.75;0.52;;;19.10;81.20;;;;;;5074855;28;20020;-77
2022/09/17 01:03:26;;;;;;;1.63;0.50;;;19.20;81.20;;;;;;5087284;28;20443;-77
2022/09/17 01:06:10;;;;;;;1.95;0.50;;;19.10;81.20;;;;;;5078095;28;20040;-78
2022/09/17 01:09:02;;;;;;;1.17;0.40;;;19.10;81.30;;;;;;5078365;28;20032;-76
2022/09/17 01:11:51;;;;;;;1.13;0.40;;;19.20;81.30;;;;;;5072139;28;20107;-76
2022/09/17 01:14:26;;;;;;;1.63;0.40;;;19.20;81.40;;;;;;5086552;28;20077;-77
2022/09/17 01:17:03;;;;;;;0.80;0.40;;;19.10;81.30;;;;;;5091642;28;20137;-77
2022/09/17 01:20:05;;;;;;;0.75;0.43;;;19.10;81.40;;;;;;5090943;28;20024;-77
2022/09/17 01:23:02;;;;;;;1.27;0.50;;;19.10;81.40;;;;;;5090725;28;20027;-77
2022/09/17 01:25:55;;;;;;;2.13;0.77;;;19.10;82.00;;;;;;5084404;28;20063;-76
2022/09/17 01:28:43;;;;;;;1.95;0.50;;;19.10;81.40;;;;;;5091884;28;20028;-76
2022/09/17 01:31:11;;;;;;;0.85;0.30;;;19.10;81.50;;;;;;5081066;28;20032;-77
2022/09/17 01:34:00;;;;;;;1.17;0.32;;;19.10;81.50;;;;;;5071998;28;20029;-77
2022/09/17 01:36:53;;;;;;;1.52;0.50;;;19.10;81.50;;;;;;5070825;28;20031;-76
2022/09/17 01:39:27;;;;;;;0.98;0.43;;;19.10;81.60;;;;;;5084395;28;20040;-77
2022/09/17 01:41:59;;;;;;;1.15;0.47;;;19.10;81.40;;;;;;5090944;28;20028;-76
2022/09/17 01:44:55;;;;;;;1.48;0.40;;;19.10;81.40;;;;;;5092184;28;20024;-77
2022/09/17 01:47:42;;;;;;;1.33;0.55;;;19.10;81.40;;;;;;5087345;28;20029;-76
2022/09/17 01:50:12;;;;;;;1.10;0.50;;;19.10;81.40;;;;;;5070464;28;20036;-76
2022/09/17 01:52:40;;;;;;;1.15;0.50;;;19.10;81.30;;;;;;5086759;28;20032;-76
2022/09/17 01:55:14;;;;;;;1.42;0.50;;;19.10;81.30;;;;;;5090258;28;20060;-76
2022/09/17 01:57:56;;;;;;;1.63;0.57;;;19.10;81.40;;;;;;5095508;28;20019;-76
2022/09/17 02:00:23;;;;;;;1.08;0.40;;;19.10;81.30;;;;;;5094829;28;20115;-76
2022/09/17 02:03:09;;;;;;;2.00;0.50;;;19.10;81.30;;;;;;5094745;28;20031;-76
2022/09/17 02:05:47;;;;;;;1.10;0.50;;;19.10;81.40;;;;;;5095933;28;20496;-76
2022/09/17 02:08:25;;;;;;;1.73;0.47;;;19.10;81.50;;;;;;5093261;28;20028;-76
2022/09/17 02:11:08;;;;;;;0.75;0.45;;;19.10;81.50;;;;;;5090986;28;20024;-77
2022/09/17 02:13:41;;;;;;;1.33;0.50;;;19.10;81.60;;;;;;5095786;28;20523;-77
2022/09/17 02:16:16;;;;;;;0.50;0.40;;;19.10;81.50;;;;;;5094326;28;20024;-77
2022/09/17 02:18:53;;;;;;;1.95;0.57;;;19.00;81.60;;;;;;5094003;28;20050;-76
2022/09/17 02:21:34;;;;;;;1.85;0.50;;;19.10;81.50;;;;;;5094394;28;20027;-77
2022/09/17 02:24:10;;;;;;;1.88;0.52;;;19.00;81.50;;;;;;5085774;28;20032;-75
2022/09/17 02:26:42;;;;;;;2.40;0.75;;;19.00;81.60;;;;;;5088781;28;20114;-75
2022/09/17 02:29:18;;;;;;;1.65;0.40;;;19.00;81.50;;;;;;5094034;28;20020;-74
2022/09/17 02:31:43;;;;;;;1.95;0.65;;;19.00;81.70;;;;;;5095258;28;20108;-76
2022/09/17 02:34:10;;;;;;;1.73;0.52;;;19.00;81.60;;;;;;5089960;28;20537;-78
2022/09/17 02:36:36;;;;;;;1.10;0.50;;;19.00;81.60;;;;;;5090785;28;20500;-76
2022/09/17 02:39:03;;;;;;;1.05;0.40;;;19.00;81.40;;;;;;5088558;28;20020;-77
2022/09/17 02:41:42;;;;;;;1.20;0.40;;;19.00;81.50;;;;;;5073731;28;20546;-75
2022/09/17 02:44:13;;;;;;;1.30;0.40;;;19.00;81.50;;;;;;5075279;28;20028;-76
2022/09/17 02:46:57;;;;;;;2.05;0.65;;;19.10;81.50;;;;;;5073533;28;20505;-75
2022/09/17 02:50:01;;;;;;;1.65;0.55;;;19.10;81.50;;;;;;5073211;28;20123;-76
2022/09/17 02:52:33;;;;;;;1.27;0.57;;;19.10;81.50;;;;;;5073787;28;20032;-78
2022/09/17 02:55:19;;;;;;;1.60;0.60;;;19.10;81.50;;;;;;5078624;28;20140;-78
2022/09/17 02:57:55;;;;;;;1.30;0.60;;;19.10;81.50;;;;;;5080516;28;20031;-77
2022/09/17 03:00:22;;;;;;;1.13;0.57;;;19.00;81.50;;;;;;5094235;28;20028;-76
2022/09/17 03:02:55;;;;;;;1.00;0.43;;;19.00;81.50;;;;;;5075022;28;20040;-76
2022/09/17 03:05:22;;;;;;;1.65;0.60;;;19.00;81.50;;;;;;5074720;28;20381;-77
2022/09/17 03:07:47;;;;;;;1.30;0.47;;;19.00;81.60;;;;;;5073802;28;20526;-78
2022/09/17 03:10:14;;;;;;;1.38;0.40;;;19.00;81.60;;;;;;5093112;28;20066;-76
2022/09/17 03:12:39;;;;;;;2.13;0.60;;;19.00;81.60;;;;;;5093522;28;20047;-77
2022/09/17 03:15:06;;;;;;;2.58;0.70;;;19.00;81.60;;;;;;5093517;28;20492;-75
2022/09/17 03:17:31;;;;;;;1.13;0.50;;;19.00;81.60;;;;;;5085419;28;20026;-73
2022/09/17 03:19:57;;;;;;;0.98;0.50;;;19.00;81.70;;;;;;5093791;28;20103;-76
2022/09/17 03:22:22;;;;;;;0.88;0.40;;;19.00;81.70;;;;;;5093600;28;20491;-78
2022/09/17 03:24:48;;;;;;;2.25;0.70;;;19.00;81.70;;;;;;5088940;28;20115;-79
2022/09/17 03:27:13;;;;;;;1.80;0.60;;;19.00;81.70;;;;;;5093606;28;20036;-77
2022/09/17 03:29:39;;;;;;;1.95;0.52;;;19.00;81.60;;;;;;5091703;28;20070;-77
2022/09/17 03:32:05;;;;;;;1.10;0.40;;;19.00;81.60;;;;;;5092512;28;20504;-77
2022/09/17 03:34:30;;;;;;;1.83;0.57;;;19.00;81.50;;;;;;5094234;28;20032;-76
2022/09/17 03:36:56;;;;;;;0.85;0.30;;;19.00;81.60;;;;;;5081001;28;20094;-77
2022/09/17 03:39:21;;;;;;;0.85;0.57;;;19.00;81.60;;;;;;5079466;28;20103;-76
2022/09/17 03:41:47;;;;;;;1.55;0.65;;;19.00;81.50;;;;;;5073851;28;20028;-77
2022/09/17 03:44:14;;;;;;;2.22;0.57;;;19.00;81.40;;;;;;5073842;28;20051;-76
2022/09/17 03:46:40;;;;;;;1.63;0.50;;;19.00;81.50;;;;;;5072470;28;20500;-76
2022/09/17 03:49:05;;;;;;;1.42;0.47;;;19.00;81.50;;;;;;5072058;28;20035;-75
2022/09/17 03:51:31;;;;;;;0.77;0.30;;;19.00;81.50;;;;;;5081732;28;20028;-76
2022/09/17 03:53:56;;;;;;;1.25;0.40;;;19.00;81.60;;;;;;5093906;28;20032;-78
2022/09/17 03:56:22;;;;;;;1.42;0.60;;;19.00;82.10;;;;;;5093855;28;20029;-77
2022/09/17 03:58:47;;;;;;;1.08;0.50;;;19.00;81.60;;;;;;5081542;28;20040;-76
2022/09/17 04:01:13;;;;;;;2.03;0.50;;;19.00;81.60;;;;;;5083301;28;20024;-77
2022/09/17 04:03:39;;;;;;;1.77;0.60;;;19.00;81.70;;;;;;5093726;28;20024;-77
2022/09/17 04:06:05;;;;;;;0.75;0.35;;;19.00;81.70;;;;;;5093865;28;20484;-77
2022/09/17 04:08:30;;;;;;;1.52;0.43;;;19.00;81.70;;;;;;5093125;28;20501;-76
2022/09/17 04:10:56;;;;;;;2.25;0.52;;;19.00;81.70;;;;;;5074780;28;20038;-76
2022/09/17 04:13:21;;;;;;;2.17;0.57;;;19.00;81.70;;;;;;5073181;28;20485;-76
2022/09/17 04:15:47;;;;;;;1.80;0.50;;;18.90;81.60;;;;;;5071875;28;20029;-77
2022/09/17 04:18:12;;;;;;;1.95;0.57;;;18.90;81.70;;;;;;5070964;28;20044;-76
2022/09/17 04:20:39;;;;;;;1.15;0.50;;;18.90;81.70;;;;;;5073015;28;20504;-76
2022/09/17 04:23:06;;;;;;;1.65;0.55;;;18.90;81.60;;;;;;5071792;28;20016;-75
2022/09/17 04:25:32;;;;;;;1.45;0.50;;;18.90;81.60;;;;;;5071606;28;20493;-76
2022/09/17 04:27:58;;;;;;;1.52;0.50;;;19.00;81.70;;;;;;5071272;28;20477;-77
2022/09/17 04:30:23;;;;;;;2.88;0.50;;;19.00;81.70;;;;;;5073177;28;20021;-75
2022/09/17 04:32:48;;;;;;;2.17;0.60;;;19.00;81.80;;;;;;5077531;28;20047;-75
2022/09/17 04:35:14;;;;;;;1.65;0.60;;;19.00;81.60;;;;;;5087377;28;20106;-76
2022/09/17 04:37:40;;;;;;;1.73;0.60;;;19.00;81.60;;;;;;5072297;28;20021;-74
2022/09/17 04:40:06;;;;;;;3.03;0.57;;;19.00;81.50;;;;;;5082373;28;20399;-73
2022/09/17 04:42:32;;;;;;;2.28;0.63;;;19.00;81.60;;;;;;5092769;28;20567;-76
2022/09/17 04:44:57;;;;;;;1.45;0.60;;;19.00;81.60;;;;;;5089674;28;20064;-77
2022/09/17 04:47:23;;;;;;;1.17;0.50;;;19.00;81.60;;;;;;5073030;28;20136;-77
2022/09/17 04:49:49;;;;;;;2.22;0.50;;;19.00;81.60;;;;;;5072224;28;20024;-79
2022/09/17 04:52:15;;;;;;;1.77;0.68;;;18.90;81.60;;;;;;5090904;28;20044;-78
2022/09/17 04:54:40;;;;;;;1.52;0.55;;;19.00;81.60;;;;;;5088217;28;20036;-78
2022/09/17 04:57:06;;;;;;;1.25;0.60;;;18.90;81.70;;;;;;5071415;28;20024;-79
2022/09/17 04:59:31;;;;;;;1.27;0.60;;;18.90;81.70;;;;;;5088748;28;20038;-76
2022/09/17 05:01:57;;;;;;;1.42;0.60;;;18.90;81.70;;;;;;5076814;28;20035;-76
2022/09/17 05:04:23;;;;;;;2.92;0.93;;;18.90;81.70;;;;;;5092397;28;20039;-76
2022/09/17 05:06:48;;;;;;;2.25;0.68;;;18.90;81.70;;;;;;5092774;28;20055;-77
2022/09/17 05:09:14;;;;;;;2.45;0.70;;;18.90;81.80;;;;;;5089791;28;20814;-75
2022/09/17 05:11:40;;;;;;;1.00;0.55;;;18.90;81.80;;;;;;5072123;28;20150;-75
2022/09/17 05:14:05;;;;;;;1.67;0.50;;;18.90;81.80;;;;;;5071428;28;20028;-76
2022/09/17 05:16:31;;;;;;;1.67;0.40;;;18.90;81.80;;;;;;5076529;28;20027;-76
2022/09/17 05:18:57;;;;;;;1.83;0.50;;;18.90;81.70;;;;;;5091644;28;20028;-76
2022/09/17 05:21:22;;;;;;;0.77;0.40;;;18.90;81.60;;;;;;5092129;28;20582;-76
2022/09/17 05:23:48;;;;;;;1.92;0.55;;;18.90;81.70;;;;;;5091242;28;20081;-76
2022/09/17 05:26:14;;;;;;;1.90;0.70;;;18.90;81.70;;;;;;5091159;28;20103;-77
2022/09/17 05:28:40;;;;;;;2.78;0.70;;;19.00;81.70;;;;;;5088981;28;20111;-75
2022/09/17 05:31:05;;;;;;;1.75;0.63;;;19.00;81.60;;;;;;5085138;28;20107;-75
2022/09/17 05:33:31;;;;;;;2.50;0.60;;;19.00;81.70;;;;;;5090871;28;20110;-75
2022/09/17 05:35:56;;;;;;;1.42;0.43;;;18.90;81.50;;;;;;5092655;28;20036;-74
2022/09/17 05:38:22;;;;;;;1.55;0.60;;;19.00;81.60;;;;;;5090883;28;20476;-76
2022/09/17 05:40:47;;;;;;;1.05;0.40;;;19.00;81.60;;;;;;5090722;28;20020;-76
2022/09/17 05:43:14;;;;;;;1.25;0.50;;;19.00;81.60;;;;;;5082720;28;20025;-77
2022/09/17 05:45:40;;;;;;;1.77;0.60;;;18.90;81.60;;;;;;5080981;28;20031;-77
2022/09/17 05:48:08;;;;;;;2.55;0.57;;;19.00;81.50;;;;;;5070069;28;20033;-75
2022/09/17 05:50:34;;;;;;;0.93;0.57;;;18.90;81.40;;;;;;5070880;28;20032;-77
2022/09/17 05:53:05;;;;;;;1.67;0.60;;;18.90;81.50;;;;;;5090191;28;20035;-77
2022/09/17 05:55:31;;;;;;;1.23;0.50;;;19.00;81.50;;;;;;5092245;28;20067;-77
2022/09/17 05:57:56;;;;;;;2.15;0.60;;;19.00;81.50;;;;;;5091828;28;20024;-78
2022/09/17 06:00:22;;;;;;;1.70;0.57;;;19.00;81.50;;;;;;5091975;28;20032;-77
2022/09/17 06:02:59;;;;;;;2.75;0.65;;;19.00;81.40;;;;;;5091846;28;20036;-78
2022/09/17 06:05:24;;;;;;;2.55;0.70;;;19.00;81.30;;;;;;5085052;28;20086;-76
2022/09/17 06:07:50;;;;;;;2.95;0.68;;;19.00;81.10;;;;;;5090935;28;20032;-77
2022/09/17 06:10:16;;;;;;;2.40;0.65;;;19.00;80.90;;;;;;5089911;28;20038;-77
2022/09/17 06:12:42;;;;;;;4.20;1.00;;;19.00;80.80;;;;;;5084836;28;20111;-77
2022/09/17 06:15:08;;;;;;;2.67;0.65;;;19.00;80.80;;;;;;5084162;28;20139;-76
2022/09/17 06:17:35;;;;;;;1.88;0.40;;;19.10;80.80;;;;;;5084090;28;20032;-78
2022/09/17 06:20:01;;;;;;;1.65;0.50;;;19.10;80.80;;;;;;5073362;28;20020;-77
2022/09/17 06:22:27;;;;;;;3.05;0.55;;;19.10;80.60;;;;;;5071003;28;20051;-76
2022/09/17 06:24:52;;;;;;;2.30;0.70;;;19.10;80.50;;;;;;5079612;28;20020;-76
2022/09/17 06:27:18;;;;;;;2.25;0.60;;;19.20;80.40;;;;;;5090964;28;20032;-75
2022/09/17 06:29:43;;;;;;;2.33;0.50;;;19.20;80.30;;;;;;5075704;28;20066;-72
2022/09/17 06:32:14;;;;;;;2.97;0.75;;;19.20;80.30;;;;;;5071273;28;20025;-75
2022/09/17 06:34:40;;;;;;;1.40;0.45;;;19.20;80.20;;;;;;5084528;28;20028;-77
2022/09/17 06:37:06;;;;;;;2.83;0.70;;;19.20;80.20;;;;;;5093602;28;20028;-73
2022/09/17 06:39:31;;;;;;;1.30;0.68;;;19.20;80.20;;;;;;5092103;28;20157;-76
2022/09/17 06:41:57;;;;;;;3.70;0.70;;;19.20;80.30;;;;;;5091631;28;20118;-75
2022/09/17 06:44:22;;;;;;;2.63;0.73;;;19.20;80.30;;;;;;5095801;28;20024;-76
2022/09/17 06:46:49;;;;;;;2.13;0.55;;;19.20;80.40;;;;;;5095340;28;20038;-78
2022/09/17 06:49:16;;;;;;;5.88;0.85;;;19.20;80.40;;;;;;5094598;28;20484;-76
2022/09/17 06:51:42;;;;;;;2.55;0.70;;;19.20;80.00;;;;;;5093693;28;20657;-76
2022/09/17 06:54:08;;;;;;;4.65;0.80;;;19.20;80.10;;;;;;5095100;28;20055;-76
2022/09/17 06:56:33;;;;;;;3.78;0.80;;;19.20;80.00;;;;;;5095196;28;20023;-75
2022/09/17 06:58:59;;;;;;;4.85;1.20;;;19.20;79.70;;;;;;5093152;28;20051;-77
2022/09/17 07:01:25;;;;;;;2.25;0.77;;;19.20;79.60;;;;;;5093832;28;20484;-77
2022/09/17 07:03:50;;;;;;;3.83;0.80;;;19.20;79.40;;;;;;5093822;28;20082;-76
2022/09/17 07:06:16;;;;;;;7.75;1.00;;;19.30;79.30;;;;;;5093780;28;20118;-77
2022/09/17 07:08:41;;;;;;;6.40;1.05;;;19.30;79.00;;;;;;5093650;28;20055;-76
2022/09/17 07:11:07;;;;;;;5.85;1.10;;;19.40;79.00;;;;;;5093713;28;20058;-77
2022/09/17 07:13:33;;;;;;;3.40;0.90;;;19.40;78.50;;;;;;5093671;28;20024;-76
2022/09/17 07:16:00;;;;;;;7.47;1.30;;;19.50;78.20;;;;;;5086744;28;20040;-76
2022/09/17 07:18:26;;;;;;;7.65;1.15;;;19.60;78.00;;;;;;5092927;28;20027;-76
2022/09/17 07:20:56;;;;;;;5.45;1.10;;;19.60;78.10;;;;;;5087070;28;20028;-75
2022/09/17 07:23:23;;;;;;;6.37;1.07;;;19.60;77.30;;;;;;5073014;28;20170;-78
2022/09/17 07:25:54;;;;;;;5.20;1.20;;;19.60;77.00;;;;;;5082183;28;20115;-76
2022/09/17 07:28:19;;;;;;;6.20;1.35;;;19.60;76.70;;;;;;5092100;28;20488;-77
2022/09/17 07:30:45;;;;;;;5.90;0.93;;;19.70;76.50;;;;;;5090722;28;20115;-77
2022/09/17 07:33:10;;;;;;;4.60;1.00;;;19.70;76.60;;;;;;5091964;28;20154;-79
2022/09/17 07:35:36;;;;;;;3.97;0.90;;;19.70;76.60;;;;;;5090449;28;20401;-76
2022/09/17 07:38:01;;;;;;;5.78;1.00;;;19.70;76.60;;;;;;5091806;28;20070;-77
2022/09/17 07:40:27;;;;;;;4.63;1.30;;;19.70;77.10;;;;;;5090497;28;20027;-76
2022/09/17 07:42:56;;;;;;;4.53;1.20;;;19.70;76.70;;;;;;5087599;28;20453;-76
2022/09/17 07:45:22;;;;;;;7.03;1.20;;;19.70;77.00;;;;;;5070817;28;20443;-77
2022/09/17 07:47:48;;;;;;;4.43;1.00;;;19.70;77.00;;;;;;5071651;28;20115;-77
2022/09/17 07:50:13;;;;;;;5.13;1.00;;;19.70;77.00;;;;;;5071720;28;20024;-76
2022/09/17 07:52:45;;;;;;;3.15;0.90;;;19.70;76.90;;;;;;5073145;28;20032;-76
2022/09/17 07:55:11;;;;;;;4.05;0.80;;;19.80;76.80;;;;;;5071966;28;20024;-76
2022/09/17 07:57:37;;;;;;;6.60;1.05;;;19.80;76.70;;;;;;5071220;28;20389;-76
2022/09/17 08:00:03;;;;;;;4.32;1.02;;;19.90;76.80;;;;;;5073355;28;20374;-76
2022/09/17 08:02:28;;;;;;;4.60;1.02;;;19.90;76.50;;;;;;5071980;28;20025;-76
2022/09/17 08:04:54;;;;;;;4.25;1.00;;;20.00;76.40;;;;;;5073418;28;20031;-76
2022/09/17 08:07:19;;;;;;;6.45;1.38;;;20.00;76.20;;;;;;5071154;28;20492;-76
2022/09/17 08:09:45;;;;;;;3.75;0.88;;;20.10;76.10;;;;;;5072532;28;20025;-76
2022/09/17 08:12:10;;;;;;;4.10;1.10;;;20.10;75.90;;;;;;5071341;28;20059;-76
2022/09/17 08:14:36;;;;;;;4.53;1.10;;;20.20;75.80;;;;;;5072706;28;20063;-76
2022/09/17 08:17:01;;;;;;;3.38;0.80;;;20.20;75.70;;;;;;5071461;28;20025;-77
2022/09/17 08:19:30;;;;;;;4.10;0.77;;;20.20;75.70;;;;;;5075362;28;20027;-76
2022/09/17 08:21:56;;;;;;;3.17;0.90;;;20.20;75.70;;;;;;5091302;28;20020;-78
2022/09/17 08:24:21;;;;;;;4.10;1.13;;;20.30;75.70;;;;;;5091131;28;20069;-80
2022/09/17 08:26:47;;;;;;;2.85;0.70;;;20.30;75.60;;;;;;5092718;28;20047;-77
2022/09/17 08:29:13;;;;;;;2.90;0.80;;;20.30;75.60;;;;;;5087163;28;20032;-77
2022/09/17 08:31:38;;;;;;;5.22;1.42;;;20.30;75.50;;;;;;5090762;28;20035;-77
2022/09/17 08:34:08;;;;;;;6.07;1.10;;;20.30;75.50;;;;;;5090380;28;20492;-77
2022/09/17 08:36:34;;;;;;;3.97;1.33;;;20.30;75.40;;;;;;5090025;28;20035;-77
2022/09/17 08:38:59;;;;;;;3.78;0.88;;;20.40;75.50;;;;;;5091239;28;20024;-77
2022/09/17 08:41:54;;;;;;;4.68;0.90;;;20.40;75.50;;;;;;5090923;28;20012;-77
2022/09/17 08:44:32;;;;;;;3.53;1.10;;;20.40;75.40;;;;;;5089551;28;20076;-78
2022/09/17 08:47:10;;;;;;;3.13;0.90;;;20.40;75.30;;;;;;5084532;28;20024;-76
2022/09/17 08:49:46;;;;;;;3.67;1.13;;;20.40;75.30;;;;;;5091900;28;20460;-78
2022/09/17 08:52:37;;;;;;;3.95;1.00;;;20.40;75.50;;;;;;5091065;28;20050;-78
2022/09/17 08:55:21;;;;;;;2.95;1.00;;;20.40;75.60;;;;;;5092456;28;20030;-77
2022/09/17 08:58:04;;;;;;;4.18;1.02;;;20.30;75.70;;;;;;5090487;28;20016;-77
2022/09/17 09:00:52;;;;;;;2.30;0.70;;;20.30;75.90;;;;;;5091900;28;20103;-79
2022/09/17 09:03:33;;;;;;;3.38;0.90;;;20.20;76.10;;;;;;5092409;28;20565;-76
2022/09/17 09:06:00;;;;;;;3.22;0.82;;;20.20;76.20;;;;;;5090945;28;20032;-77
2022/09/17 09:09:03;;;;;;;2.42;0.80;;;20.20;76.30;;;;;;5091401;28;20306;-76
2022/09/17 09:11:30;;;;;;;4.38;1.05;;;20.20;76.40;;;;;;5085086;28;20512;-77
2022/09/17 09:14:14;;;;;;;3.55;0.82;;;20.20;76.40;;;;;;5090623;28;20044;-75
2022/09/17 09:16:44;;;;;;;2.78;0.73;;;20.20;76.50;;;;;;5092254;28;20392;-76
2022/09/17 09:19:17;;;;;;;4.13;1.08;;;20.20;76.50;;;;;;5091072;28;20032;-76
2022/09/17 09:21:59;;;;;;;4.40;1.00;;;20.20;76.50;;;;;;5094914;28;20020;-77
2022/09/17 09:24:31;;;;;;;3.65;0.98;;;20.20;76.30;;;;;;5084587;28;20477;-79
2022/09/17 09:27:08;;;;;;;3.13;0.82;;;20.20;75.90;;;;;;5092407;28;20031;-75
2022/09/17 09:30:12;;;;;;;4.82;1.00;;;20.30;75.80;;;;;;5092035;28;20481;-75
2022/09/17 09:33:09;;;;;;;4.82;1.00;;;20.30;75.70;;;;;;5086062;28;20552;-82
2022/09/17 09:35:39;;;;;;;4.40;1.00;;;20.40;75.60;;;;;;5091676;28;20028;-76
2022/09/17 09:38:08;;;;;;;5.30;0.90;;;20.40;75.40;;;;;;5090199;28;20021;-76
2022/09/17 09:40:46;;;;;;;7.78;1.20;;;20.40;75.40;;;;;;5084465;28;20489;-77
2022/09/17 09:43:20;;;;;;;2.60;0.88;;;20.50;75.30;;;;;;5079611;28;20028;-77
2022/09/17 09:46:07;;;;;;;3.05;0.82;;;20.40;75.20;;;;;;5084516;28;20028;-83
2022/09/17 09:48:45;;;;;;;4.53;1.17;;;20.40;75.50;;;;;;5089596;28;20117;-76
2022/09/17 09:51:30;;;;;;;4.60;0.90;;;20.40;75.50;;;;;;5090483;28;20031;-76
2022/09/17 09:54:10;;;;;;;4.82;0.80;;;20.50;75.40;;;;;;5090644;28;20028;-76
2022/09/17 09:57:04;;;;;;;5.15;0.90;;;20.50;75.10;;;;;;5090430;28;20020;-73
2022/09/17 09:59:30;;;;;;;4.68;1.05;;;20.50;75.10;;;;;;5088952;28;20065;-73
2022/09/17 10:01:56;;;;;;;5.05;0.93;;;20.50;75.00;;;;;;5091412;28;20422;-77
2022/09/17 10:04:24;;;;;;;5.65;1.15;;;20.60;75.10;;;;;;5090609;28;20028;-73
2022/09/17 10:06:52;;;;;;;6.32;1.02;;;20.50;75.10;;;;;;5091044;28;20016;-73
2022/09/17 10:09:21;;;;;;;5.32;1.50;;;20.50;75.20;;;;;;5089183;28;20066;-74
2022/09/17 10:12:00;;;;;;;4.75;0.93;;;20.50;75.30;;;;;;5089613;28;20396;-73
2022/09/17 10:14:45;;;;;;;3.22;0.73;;;20.50;75.30;;;;;;5088268;28;20126;-74
2022/09/17 10:17:16;;;;;;;2.92;0.80;;;20.50;75.30;;;;;;5091820;28;20027;-73
2022/09/17 10:19:43;;;;;;;3.72;0.90;;;20.40;75.20;;;;;;5092435;28;20168;-74
2022/09/17 10:22:30;;;;;;;3.35;1.10;;;20.50;75.20;;;;;;5094922;28;20068;-74
2022/09/17 10:24:58;;;;;;;4.38;0.95;;;20.50;75.10;;;;;;5094718;28;20400;-74
2022/09/17 10:27:24;;;;;;;3.45;0.95;;;20.50;75.00;;;;;;5094328;28;20024;-74
2022/09/17 10:30:00;;;;;;;3.25;0.90;;;20.40;75.00;;;;;;5092926;28;20024;-73
2022/09/17 10:32:25;;;;;;;3.53;0.80;;;20.40;75.00;;;;;;5094679;28;20059;-74
2022/09/17 10:35:04;;;;;;;4.10;0.90;;;20.40;75.00;;;;;;5092827;28;20071;-73
2022/09/17 10:37:41;;;;;;;2.83;0.90;;;20.40;75.00;;;;;;5085063;28;20035;-74
2022/09/17 10:40:18;;;;;;;3.33;0.88;;;20.40;75.00;;;;;;5092882;28;20567;-73
2022/09/17 10:43:10;;;;;;;5.03;1.05;;;20.40;75.10;;;;;;5093302;28;20032;-75
2022/09/17 10:45:41;;;;;;;4.07;1.10;;;20.40;75.50;;;;;;5092648;28;20031;-74
2022/09/17 10:48:14;;;;;;;3.15;0.80;;;20.40;75.00;;;;;;5094546;28;20020;-77
2022/09/17 10:50:40;;;;;;;3.65;0.98;;;20.40;75.10;;;;;;5094054;28;20051;-78
2022/09/17 10:53:14;;;;;;;1.48;0.60;;;20.40;75.00;;;;;;5097975;28;20481;-77
2022/09/17 10:55:45;;;;;;;2.58;0.70;;;20.40;75.00;;;;;;5093866;28;20024;-78
2022/09/17 10:58:37;;;;;;;3.35;1.00;;;20.30;75.20;;;;;;5094331;28;20032;-78
2022/09/17 11:01:17;;;;;;;3.17;0.60;;;20.30;75.40;;;;;;5093494;28;20016;-78
2022/09/17 11:04:34;;;;;;;2.60;0.70;;;20.30;75.20;;;;;;5093336;28;20013;-78
2022/09/17 11:07:31;;;;;;;2.77;0.77;;;20.30;75.30;;;;;;5043782;28;20056;-76
2022/09/17 11:10:31;;;;;;;2.72;0.88;;;20.30;75.30;;;;;;5089177;28;20058;-76
2022/09/17 11:13:29;;;;;;;3.47;1.00;;;20.30;75.30;;;;;;5083458;28;20441;-75
2022/09/17 11:16:34;;;;;;;4.90;0.85;;;20.30;75.30;;;;;;5079743;28;20055;-75
2022/09/17 11:19:25;;;;;;;3.58;1.08;;;20.30;75.30;;;;;;5043366;28;20060;-76
2022/09/17 11:22:32;;;;;;;2.53;0.73;;;20.30;75.40;;;;;;5084714;28;20024;-75
2022/09/17 11:25:16;;;;;;;2.65;0.70;;;20.30;75.40;;;;;;5073674;28;20452;-77
2022/09/17 11:28:06;;;;;;;3.33;0.82;;;20.30;75.50;;;;;;5088108;28;20107;-77
2022/09/17 11:30:47;;;;;;;2.92;0.60;;;20.20;75.70;;;;;;5092761;28;20028;-75
2022/09/17 11:33:13;;;;;;;3.42;0.88;;;20.20;75.80;;;;;;5094066;28;20036;-75
2022/09/17 11:35:58;;;;;;;3.17;0.70;;;20.20;75.70;;;;;;5092680;28;20036;-76
2022/09/17 11:38:33;;;;;;;2.45;0.82;;;20.20;75.70;;;;;;5093850;28;20020;-76
2022/09/17 11:41:03;;;;;;;3.20;0.85;;;20.20;75.60;;;;;;5084242;28;20116;-75
2022/09/17 11:43:32;;;;;;;2.90;0.80;;;20.20;75.60;;;;;;5085548;28;20032;-75
2022/09/17 11:46:19;;;;;;;2.40;0.70;;;20.20;75.60;;;;;;5092474;28;20032;-75
2022/09/17 11:48:56;;;;;;;4.28;0.80;;;20.20;75.40;;;;;;5093559;28;20035;-78
2022/09/17 11:51:35;;;;;;;4.38;0.90;;;20.20;75.50;;;;;;5092325;28;20040;-75
2022/09/17 11:54:03;;;;;;;3.10;0.70;;;20.10;75.60;;;;;;5092070;28;20408;-76
2022/09/17 11:56:42;;;;;;;4.22;1.00;;;20.10;75.70;;;;;;5074501;28;20021;-73
2022/09/17 11:59:11;;;;;;;4.43;1.05;;;20.10;75.60;;;;;;5072749;28;20017;-76
2022/09/17 12:01:50;;;;;;;3.72;0.80;;;20.10;75.50;;;;;;5071910;28;20024;-76
2022/09/17 12:04:37;;;;;;;2.20;0.63;;;20.10;75.40;;;;;;5073362;28;20017;-75
2022/09/17 12:07:28;;;;;;;3.20;0.77;;;20.10;75.40;;;;;;5073770;28;20028;-80
2022/09/17 12:10:35;;;;;;;3.78;0.90;;;20.10;75.30;;;;;;5080078;28;20111;-77
2022/09/17 12:13:44;;;;;;;3.65;0.88;;;20.00;75.60;;;;;;5083647;28;20031;-76
2022/09/17 12:16:28;;;;;;;5.83;1.20;;;20.00;75.50;;;;;;5065893;27;20048;-77
2022/09/17 12:19:15;;;;;;;4.47;0.90;;;20.00;75.20;;;;;;5090035;28;20282;-79
2022/09/17 12:21:48;;;;;;;3.35;1.00;;;20.00;75.30;;;;;;5089168;28;20039;-76
2022/09/17 12:24:22;;;;;;;5.10;0.90;;;20.00;75.40;;;;;;5083342;28;20028;-78
2022/09/17 12:27:14;;;;;;;3.30;0.88;;;20.00;75.40;;;;;;5092332;28;20032;-77
2022/09/17 12:29:48;;;;;;;4.32;1.00;;;20.00;75.50;;;;;;5090724;28;20020;-77
2022/09/17 12:32:19;;;;;;;2.63;0.80;;;20.00;75.40;;;;;;5092924;28;20603;-81
2022/09/17 12:34:54;;;;;;;2.83;0.77;;;20.00;75.40;;;;;;5092856;28;20373;-75
2022/09/17 12:37:44;;;;;;;2.72;0.80;;;20.00;75.40;;;;;;5092795;28;20102;-74
2022/09/17 12:40:36;;;;;;;3.17;0.75;;;20.00;75.30;;;;;;5092241;28;20032;-76
2022/09/17 12:43:38;;;;;;;4.03;0.82;;;20.00;75.20;;;;;;5093170;28;20020;-75
2022/09/17 12:46:41;;;;;;;3.72;0.80;;;20.00;75.20;;;;;;5092988;28;20548;-75
2022/09/17 12:49:31;;;;;;;3.08;0.80;;;20.00;75.30;;;;;;5090905;28;20028;-76
2022/09/17 12:51:58;;;;;;;6.28;0.80;;;20.00;75.40;;;;;;5088441;28;20024;-75
2022/09/17 12:54:48;;;;;;;3.35;0.88;;;20.00;75.40;;;;;;5089888;28;20024;-77
2022/09/17 12:57:38;;;;;;;3.43;0.70;;;20.00;75.60;;;;;;5090745;28;20020;-76
2022/09/17 13:00:09;;;;;;;4.43;0.63;;;19.90;75.50;;;;;;5089779;28;20278;-76
2022/09/17 13:02:46;;;;;;;4.28;1.17;;;19.90;75.60;;;;;;5092317;28;20059;-76
2022/09/17 13:05:24;;;;;;;3.88;1.00;;;19.90;75.60;;;;;;5090360;28;20434;-78
2022/09/17 13:08:01;;;;;;;3.55;0.93;;;19.90;75.60;;;;;;5089242;28;20106;-76
2022/09/17 13:10:45;;;;;;;3.25;0.80;;;19.90;75.70;;;;;;5092139;28;20089;-76
2022/09/17 13:13:31;;;;;;;3.60;0.70;;;19.90;75.80;;;;;;5088677;28;20047;-74
2022/09/17 13:16:35;;;;;;;2.00;0.70;;;19.90;75.90;;;;;;5090895;28;20028;-76
2022/09/17 13:19:20;;;;;;;3.25;0.68;;;19.80;75.90;;;;;;5089256;28;20123;-76